Time,TemperatureF,DewpointF,PressureIn,WindDirection,WindDirectionDegrees,WindSpeedMPH,WindSpeedGustMPH,Humidity,HourlyPrecipIn,Conditions,Clouds,dailyrainin,SolarRadiationWatts/m^2,SoftwareType,DateUTC
2013-01-03 00:27:00,63.5,63.0,30.05,SSE,168,0.0,2.0,99,0.00,,,0.00,0,weatherlink.com 1.10,2013-01-03 05:27:00,
2013-01-03 00:42:00,63.8,64.0,30.04,SSE,168,0.0,2.0,100,0.00,,,0.00,0,weatherlink.com 1.10,2013-01-03 05:42:00,
2013-01-03 00:57:00,63.9,64.0,30.04,SSE,168,1.0,2.0,100,0.00,,,0.00,0,weatherlink.com 1.10,2013-01-03 05:57:00,
2013-01-03 01:12:00,64.0,64.0,30.04,SSE,168,0.0,2.0,100,0.00,,,0.00,0,weatherlink.com 1.10,2013-01-03 06:12:00,
2013-01-03 01:27:00,64.1,64.0,30.04,SSE,168,1.0,2.0,100,0.00,,,0.00,0,weatherlink.com 1.10,2013-01-03 06:27:00,
2013-01-03 01:42:00,64.2,64.0,30.04,SSE,168,1.0,2.0,100,0.00,,,0.00,0,weatherlink.com 1.10,2013-01-03 06:42:00,
2013-01-03 01:57:00,64.2,64.0,30.04,SSE,168,0.0,2.0,100,0.00,,,0.00,0,weatherlink.com 1.10,2013-01-03 06:57:00,
2013-01-03 02:12:00,64.2,64.0,30.04,SSE,161,1.0,3.0,100,0.00,,,0.00,0,weatherlink.com 1.10,2013-01-03 07:12:00,
2013-01-03 02:27:00,64.4,64.0,30.04,SE,146,2.0,2.0,100,0.00,,,0.00,0,weatherlink.com 1.10,2013-01-03 07:27:00,
2013-01-03 02:57:00,64.8,65.0,30.03,SE,128,1.0,3.0,100,0.00,,,0.00,0,weatherlink.com 1.10,2013-01-03 07:57:00,
2013-01-03 03:12:00,64.8,65.0,30.03,SE,128,1.0,5.0,100,0.00,,,0.00,0,weatherlink.com 1.10,2013-01-03 08:12:00,
2013-01-03 03:27:00,64.8,65.0,30.02,SE,130,0.0,2.0,100,0.00,,,0.00,0,weatherlink.com 1.10,2013-01-03 08:27:00,
2013-01-03 03:42:00,64.9,65.0,30.02,SE,133,2.0,3.0,100,0.00,,,0.00,0,weatherlink.com 1.10,2013-01-03 08:42:00,
2013-01-03 03:57:00,65.0,65.0,30.02,ESE,123,2.0,5.0,100,0.00,,,0.00,0,weatherlink.com 1.10,2013-01-03 08:57:00,
2013-01-03 04:12:00,64.9,65.0,30.02,SE,145,1.0,4.0,100,0.00,,,0.00,0,weatherlink.com 1.10,2013-01-03 09:12:00,
2013-01-03 04:27:00,64.8,65.0,30.02,SE,126,0.0,3.0,100,0.00,,,0.00,0,weatherlink.com 1.10,2013-01-03 09:27:00,
2013-01-03 04:57:00,64.4,64.0,30.03,SE,129,3.0,5.0,100,0.00,,,0.00,0,weatherlink.com 1.10,2013-01-03 09:57:00,
2013-01-03 05:12:00,64.3,64.0,30.03,ESE,115,2.0,4.0,100,0.00,,,0.00,0,weatherlink.com 1.10,2013-01-03 10:12:00,
2013-01-03 05:27:00,64.3,64.0,30.03,SSE,148,2.0,4.0,100,0.00,,,0.00,0,weatherlink.com 1.10,2013-01-03 10:27:00,
2013-01-03 05:42:00,64.2,64.0,30.03,ESE,116,0.0,4.0,100,0.00,,,0.00,0,weatherlink.com 1.10,2013-01-03 10:42:00,
2013-01-03 05:57:00,64.2,64.0,30.04,SSE,168,0.0,3.0,100,0.00,,,0.00,0,weatherlink.com 1.10,2013-01-03 10:57:00,
2013-01-03 06:12:00,64.3,64.0,30.05,WNW,286,1.0,3.0,100,0.00,,,0.00,0,weatherlink.com 1.10,2013-01-03 11:12:00,
2013-01-03 06:27:00,64.2,64.0,30.06,WNW,286,1.0,2.0,100,0.00,,,0.00,0,weatherlink.com 1.10,2013-01-03 11:27:00,
2013-01-03 06:42:00,64.1,64.0,30.06,WNW,286,0.0,1.0,100,0.01,,,0.01,0,weatherlink.com 1.10,2013-01-03 11:42:00,
2013-01-03 06:57:00,64.3,64.0,30.06,WNW,286,0.0,1.0,100,0.01,,,0.01,0,weatherlink.com 1.10,2013-01-03 11:57:00,
2013-01-03 07:12:00,64.3,64.0,30.06,WNW,286,1.0,3.0,100,0.01,,,0.01,0,weatherlink.com 1.10,2013-01-03 12:12:00,
2013-01-03 07:27:00,64.4,64.0,30.06,NE,52,1.0,2.0,100,0.00,,,0.01,0,weatherlink.com 1.10,2013-01-03 12:27:00,
2013-01-03 07:42:00,64.4,64.0,30.07,East,96,1.0,3.0,100,0.00,,,0.01,11,weatherlink.com 1.10,2013-01-03 12:42:00,
2013-01-03 07:57:00,64.3,64.0,30.07,East,88,3.0,3.0,100,0.00,,,0.01,23,weatherlink.com 1.10,2013-01-03 12:57:00,
2013-01-03 08:12:00,64.3,64.0,30.07,SE,129,0.0,4.0,100,0.00,,,0.01,42,weatherlink.com 1.10,2013-01-03 13:12:00,
2013-01-03 08:27:00,64.6,65.0,30.08,ENE,76,1.0,3.0,100,0.00,,,0.01,79,weatherlink.com 1.10,2013-01-03 13:27:00,
2013-01-03 08:42:00,65.1,65.0,30.07,East,93,3.0,6.0,100,0.00,,,0.01,153,weatherlink.com 1.10,2013-01-03 13:42:00,
2013-01-03 08:57:00,65.6,66.0,30.08,SE,140,2.0,7.0,100,0.00,,,0.01,216,weatherlink.com 1.10,2013-01-03 13:57:00,
2013-01-03 09:12:00,65.3,65.0,30.08,SE,131,2.0,5.0,100,0.00,,,0.01,93,weatherlink.com 1.10,2013-01-03 14:12:00,
2013-01-03 09:27:00,65.4,65.0,30.09,ESE,114,1.0,4.0,100,0.00,,,0.01,91,weatherlink.com 1.10,2013-01-03 14:27:00,
2013-01-03 09:42:00,65.8,66.0,30.09,ESE,114,2.0,3.0,100,0.00,,,0.01,76,weatherlink.com 1.10,2013-01-03 14:42:00,
2013-01-03 09:57:00,66.2,66.0,30.09,ESE,112,3.0,5.0,100,0.00,,,0.01,332,weatherlink.com 1.10,2013-01-03 14:57:00,
2013-01-03 10:13:00,67.0,67.0,30.09,ESE,113,4.0,5.0,100,0.00,,,0.01,248,weatherlink.com 1.10,2013-01-03 15:13:00,
2013-01-03 10:28:00,67.9,68.0,30.09,East,83,2.0,5.0,99,0.00,,,0.01,457,weatherlink.com 1.10,2013-01-03 15:28:00,
2013-01-03 10:44:00,70.7,69.0,30.09,SE,128,1.0,6.0,95,0.00,,,0.01,592,weatherlink.com 1.10,2013-01-03 15:44:00,
2013-01-03 10:58:00,71.6,68.0,30.08,ESE,111,2.0,6.0,89,0.00,,,0.01,383,weatherlink.com 1.10,2013-01-03 15:58:00,
2013-01-03 11:13:00,74.2,69.0,30.08,ESE,120,5.0,6.0,83,0.00,,,0.01,292,weatherlink.com 1.10,2013-01-03 16:13:00,
2013-01-03 11:28:00,73.5,68.0,30.08,SE,142,2.0,5.0,84,0.00,,,0.01,388,weatherlink.com 1.10,2013-01-03 16:28:00,
2013-01-03 11:43:00,74.6,69.0,30.07,SE,145,2.0,4.0,82,0.00,,,0.01,457,weatherlink.com 1.10,2013-01-03 16:43:00,
2013-01-03 11:58:00,75.0,67.0,30.06,ENE,74,3.0,7.0,77,0.00,,,0.01,330,weatherlink.com 1.10,2013-01-03 16:58:00,
2013-01-03 12:13:00,75.4,67.0,30.05,East,94,0.0,4.0,76,0.00,,,0.01,283,weatherlink.com 1.10,2013-01-03 17:13:00,
2013-01-03 12:28:00,74.4,67.0,30.04,East,101,2.0,6.0,78,0.00,,,0.01,299,weatherlink.com 1.10,2013-01-03 17:28:00,
2013-01-03 12:43:00,74.7,68.0,30.04,NNE,22,1.0,4.0,79,0.00,,,0.01,265,weatherlink.com 1.10,2013-01-03 17:43:00,
2013-01-03 12:58:00,74.2,67.0,30.04,ENE,78,0.0,3.0,78,0.00,,,0.01,178,weatherlink.com 1.10,2013-01-03 17:58:00,
2013-01-03 13:13:00,75.3,67.0,30.03,East,92,3.0,5.0,75,0.00,,,0.01,174,weatherlink.com 1.10,2013-01-03 18:13:00,
2013-01-03 13:28:00,75.1,67.0,30.03,ESE,107,1.0,5.0,75,0.00,,,0.01,141,weatherlink.com 1.10,2013-01-03 18:28:00,
2013-01-03 13:43:00,75.0,66.0,30.03,SSW,209,1.0,2.0,74,0.00,,,0.01,65,weatherlink.com 1.10,2013-01-03 18:43:00,
2013-01-03 13:58:00,73.2,67.0,30.03,WSW,240,1.0,6.0,80,0.00,,,0.01,60,weatherlink.com 1.10,2013-01-03 18:58:00,
2013-01-03 14:13:00,71.8,66.0,30.03,West,277,1.0,5.0,83,0.00,,,0.01,39,weatherlink.com 1.10,2013-01-03 19:13:00,
2013-01-03 14:58:00,65.9,64.0,30.03,WNW,299,0.0,8.0,93,0.00,,,0.01,90,weatherlink.com 1.10,2013-01-03 19:58:00,
2013-01-03 15:13:00,66.3,64.0,30.03,WNW,298,4.0,7.0,93,0.00,,,0.01,65,weatherlink.com 1.10,2013-01-03 20:13:00,
2013-01-03 15:28:00,65.2,63.0,30.04,North,5,6.0,9.0,93,0.00,,,0.01,23,weatherlink.com 1.10,2013-01-03 20:28:00,
2013-01-03 15:43:00,64.4,63.0,30.05,WNW,293,3.0,7.0,94,0.00,,,0.01,21,weatherlink.com 1.10,2013-01-03 20:43:00,
2013-01-03 15:58:00,63.3,62.0,30.06,WNW,291,4.0,7.0,96,0.01,,,0.02,23,weatherlink.com 1.10,2013-01-03 20:58:00,
2013-01-03 16:13:00,62.7,62.0,30.06,West,273,4.0,7.0,97,0.02,,,0.03,19,weatherlink.com 1.10,2013-01-03 21:13:00,
2013-01-03 16:28:00,62.6,62.0,30.06,NW,326,3.0,6.0,97,0.02,,,0.03,18,weatherlink.com 1.10,2013-01-03 21:28:00,
2013-01-03 16:58:00,62.4,62.0,30.07,North,350,1.0,6.0,98,0.02,,,0.04,9,weatherlink.com 1.10,2013-01-03 21:58:00,
2013-01-03 17:13:00,62.5,62.0,30.07,WNW,294,1.0,4.0,98,0.01,,,0.04,5,weatherlink.com 1.10,2013-01-03 22:13:00,
2013-01-03 17:28:00,62.6,62.0,30.08,NW,319,1.0,4.0,98,0.02,,,0.05,0,weatherlink.com 1.10,2013-01-03 22:28:00,
2013-01-03 17:43:00,62.8,62.0,30.07,NNW,327,1.0,4.0,98,0.03,,,0.07,0,weatherlink.com 1.10,2013-01-03 22:43:00,
2013-01-03 17:58:00,62.9,63.0,30.07,North,11,2.0,4.0,99,0.03,,,0.07,0,weatherlink.com 1.10,2013-01-03 22:58:00,
2013-01-03 18:13:00,63.0,63.0,30.08,NNW,342,1.0,4.0,99,0.02,,,0.07,0,weatherlink.com 1.10,2013-01-03 23:13:00,
2013-01-03 18:28:00,62.9,63.0,30.09,West,273,2.0,3.0,99,0.02,,,0.07,0,weatherlink.com 1.10,2013-01-03 23:28:00,
2013-01-03 18:43:00,63.0,63.0,30.10,NNE,23,2.0,7.0,99,0.00,,,0.07,0,weatherlink.com 1.10,2013-01-03 23:43:00,
2013-01-03 18:58:00,62.9,63.0,30.11,NW,307,6.0,8.0,99,0.00,,,0.07,0,weatherlink.com 1.10,2013-01-03 23:58:00,
2013-01-03 19:13:00,61.7,61.0,30.11,NNE,21,2.0,11.0,98,0.00,,,0.07,0,weatherlink.com 1.10,2013-01-04 00:13:00,
2013-01-03 19:28:00,61.5,61.0,30.12,NNE,18,2.0,12.0,98,0.00,,,0.07,0,weatherlink.com 1.10,2013-01-04 00:28:00,
2013-01-03 19:43:00,61.3,61.0,30.12,NNE,23,2.0,8.0,98,0.00,,,0.07,0,weatherlink.com 1.10,2013-01-04 00:43:00,
2013-01-03 19:58:00,60.6,60.0,30.13,North,10,2.0,12.0,98,0.00,,,0.07,0,weatherlink.com 1.10,2013-01-04 00:58:00,
2013-01-03 20:13:00,59.8,59.0,30.13,North,360,4.0,13.0,97,0.00,,,0.07,0,weatherlink.com 1.10,2013-01-04 01:13:00,
2013-01-03 20:28:00,59.6,59.0,30.13,NE,44,3.0,12.0,98,0.01,,,0.08,0,weatherlink.com 1.10,2013-01-04 01:28:00,
2013-01-03 20:43:00,59.6,59.0,30.14,NE,44,4.0,10.0,98,0.01,,,0.08,0,weatherlink.com 1.10,2013-01-04 01:43:00,
2013-01-03 20:58:00,59.5,59.0,30.14,NNE,15,3.0,9.0,98,0.02,,,0.09,0,weatherlink.com 1.10,2013-01-04 01:58:00,
2013-01-03 21:14:00,59.0,59.0,30.14,NNE,13,5.0,12.0,98,0.02,,,0.09,0,weatherlink.com 1.10,2013-01-04 02:14:00,
2013-01-03 21:29:00,59.0,59.0,30.14,North,11,2.0,11.0,98,0.01,,,0.09,0,weatherlink.com 1.10,2013-01-04 02:29:00,
2013-01-03 21:44:00,59.1,58.0,30.15,North,349,4.0,9.0,97,0.01,,,0.09,0,weatherlink.com 1.10,2013-01-04 02:44:00,
2013-01-03 21:59:00,59.1,58.0,30.15,NE,44,4.0,11.0,97,0.02,,,0.11,0,weatherlink.com 1.10,2013-01-04 02:59:00,
2013-01-03 22:14:00,59.1,59.0,30.16,NNE,22,3.0,8.0,98,0.04,,,0.13,0,weatherlink.com 1.10,2013-01-04 03:14:00,
2013-01-03 22:29:00,59.1,59.0,30.15,North,5,6.0,9.0,98,0.05,,,0.14,0,weatherlink.com 1.10,2013-01-04 03:29:00,
2013-01-03 22:44:00,59.2,59.0,30.15,North,349,2.0,9.0,98,0.06,,,0.15,0,weatherlink.com 1.10,2013-01-04 03:44:00,
2013-01-03 22:59:00,59.3,59.0,30.16,NE,36,2.0,10.0,98,0.04,,,0.15,0,weatherlink.com 1.10,2013-01-04 03:59:00,
2013-01-03 23:14:00,59.4,59.0,30.15,NNE,18,4.0,9.0,98,0.03,,,0.16,0,weatherlink.com 1.10,2013-01-04 04:14:00,
2013-01-03 23:29:00,59.4,59.0,30.15,North,355,3.0,7.0,98,0.03,,,0.17,0,weatherlink.com 1.10,2013-01-04 04:29:00,
2013-01-03 23:44:00,59.5,59.0,30.15,NNE,19,1.0,9.0,98,0.02,,,0.17,0,weatherlink.com 1.10,2013-01-04 04:44:00,
2013-01-03 23:59:00,59.5,59.0,30.15,NE,38,4.0,7.0,98,0.02,,,0.17,0,weatherlink.com 1.10,2013-01-04 04:59:00,